createdAt,value
2022-08-23T00:02:23.745Z,1.27
2022-08-23T00:05:08.033Z,1.20
2022-08-23T00:07:39.236Z,1.25
2022-08-23T00:10:09.345Z,1.80
2022-08-23T00:12:36.362Z,1.10
2022-08-23T00:15:03.440Z,1.17
2022-08-23T00:17:34.125Z,1.40
2022-08-23T00:20:03.397Z,1.27
2022-08-23T00:22:30.066Z,1.27
2022-08-23T00:24:56.809Z,1.40
2022-08-23T00:27:23.416Z,1.20
2022-08-23T00:29:55.712Z,1.30
2022-08-23T00:32:25.833Z,1.15
2022-08-23T00:34:53.081Z,1.13
2022-08-23T00:37:21.932Z,1.00
2022-08-23T00:39:49.301Z,1.17
2022-08-23T00:43:03.284Z,0.80
2022-08-23T00:46:36.497Z,1.08
2022-08-23T00:49:08.935Z,1.15
2022-08-23T00:52:00.491Z,1.00
2022-08-23T00:56:59.179Z,0.95
2022-08-23T00:59:26.285Z,1.25
2022-08-23T01:01:53.235Z,1.35
2022-08-23T01:04:20.582Z,1.58
2022-08-23T01:07:03.407Z,1.40
2022-08-23T01:09:30.595Z,1.45
2022-08-23T01:12:06.831Z,1.50
2022-08-23T01:14:41.063Z,1.23
2022-08-23T01:17:16.073Z,1.40
2022-08-23T01:20:06.260Z,1.40
2022-08-23T01:22:44.979Z,1.60
2022-08-23T01:25:17.451Z,1.50
2022-08-23T01:27:45.100Z,1.30
2022-08-23T01:30:22.513Z,1.20
2022-08-23T01:32:58.228Z,1.30
2022-08-23T01:35:34.712Z,1.30
2022-08-23T01:38:02.469Z,1.15
2022-08-23T01:40:30.427Z,1.40
2022-08-23T01:42:57.314Z,1.58
2022-08-23T01:45:24.130Z,1.33
2022-08-23T01:47:51.474Z,1.30
2022-08-23T01:50:19.235Z,1.60
2022-08-23T01:52:46.877Z,1.48
2022-08-23T01:55:14.679Z,1.55
2022-08-23T01:57:43.284Z,1.65
2022-08-23T02:00:14.882Z,1.55
2022-08-23T02:02:41.787Z,2.13
2022-08-23T02:05:09.700Z,1.70
2022-08-23T02:07:36.820Z,1.30
2022-08-23T02:10:06.580Z,1.50
2022-08-23T02:12:34.043Z,1.27
2022-08-23T02:15:10.874Z,1.48
2022-08-23T02:17:41.009Z,2.13
2022-08-23T02:20:09.250Z,2.05
2022-08-23T02:22:38.899Z,1.90
2022-08-23T02:25:06.585Z,1.67
2022-08-23T02:27:33.621Z,1.70
2022-08-23T02:30:00.610Z,1.67
2022-08-23T02:32:29.386Z,1.80
2022-08-23T02:35:05.147Z,1.63
2022-08-23T02:37:35.345Z,1.65
2022-08-23T02:40:04.218Z,1.63
2022-08-23T02:42:31.423Z,1.77
2022-08-23T02:44:59.647Z,1.40
2022-08-23T02:47:26.454Z,1.55
2022-08-23T02:50:08.850Z,1.70
2022-08-23T02:52:35.569Z,1.92
2022-08-23T02:55:02.426Z,1.70
2022-08-23T02:57:31.557Z,1.90
2022-08-23T03:00:00.518Z,1.83
2022-08-23T03:02:27.516Z,1.83
2022-08-23T03:04:54.266Z,2.13
2022-08-23T03:07:21.176Z,1.95
2022-08-23T03:09:48.039Z,1.70
2022-08-23T03:12:14.784Z,1.40
2022-08-23T03:14:47.694Z,1.92
2022-08-23T03:17:14.505Z,1.63
2022-08-23T03:19:41.452Z,1.92
2022-08-23T03:22:08.428Z,1.80
2022-08-23T03:24:36.229Z,1.92
2022-08-23T03:27:03.815Z,1.58
2022-08-23T03:29:32.238Z,1.90
2022-08-23T03:32:02.242Z,1.92
2022-08-23T03:34:32.431Z,1.70
2022-08-23T03:36:59.268Z,1.75
2022-08-23T03:39:26.673Z,1.80
2022-08-23T03:41:55.343Z,1.60
2022-08-23T03:44:22.396Z,2.17
2022-08-23T03:46:50.553Z,1.80
2022-08-23T03:49:17.680Z,1.80
2022-08-23T03:51:50.794Z,1.75
2022-08-23T03:54:17.735Z,1.88
2022-08-23T03:56:52.797Z,2.00
2022-08-23T03:59:20.284Z,1.90
2022-08-23T04:01:47.225Z,1.90
2022-08-23T04:04:14.134Z,2.00
2022-08-23T04:06:54.238Z,1.88
2022-08-23T04:09:21.267Z,1.90
2022-08-23T04:11:48.646Z,1.90
2022-08-23T04:14:15.954Z,1.63
2022-08-23T04:16:43.487Z,1.77
2022-08-23T04:19:13.490Z,1.75
2022-08-23T04:21:52.364Z,1.45
2022-08-23T04:24:19.756Z,1.30
2022-08-23T04:26:47.496Z,1.42
2022-08-23T04:29:33.547Z,1.38
2022-08-23T04:32:05.529Z,1.60
2022-08-23T04:34:36.592Z,1.67
2022-08-23T04:37:03.755Z,1.60
2022-08-23T04:39:56.344Z,1.40
2022-08-23T04:42:24.927Z,1.80
2022-08-23T04:44:52.227Z,1.92
2022-08-23T04:47:20.358Z,1.70
2022-08-23T04:49:47.694Z,1.70
2022-08-23T04:52:19.072Z,1.63
2022-08-23T04:54:47.004Z,1.80
2022-08-23T04:57:42.791Z,1.50
2022-08-23T05:00:14.040Z,1.52
2022-08-23T05:02:48.387Z,1.58
2022-08-23T05:05:15.210Z,2.15
2022-08-23T05:07:44.510Z,1.40
2022-08-23T05:10:13.755Z,1.88
2022-08-23T05:12:43.802Z,1.85
2022-08-23T05:15:12.739Z,2.13
2022-08-23T05:17:44.334Z,1.95
2022-08-23T05:20:11.300Z,1.80
2022-08-23T05:22:41.507Z,1.95
2022-08-23T05:25:22.509Z,2.10
2022-08-23T05:27:56.448Z,2.63
2022-08-23T05:30:23.128Z,2.45
2022-08-23T05:32:50.195Z,2.67
2022-08-23T05:35:17.537Z,2.35
2022-08-23T05:37:44.995Z,3.15
2022-08-23T05:40:12.041Z,2.50
2022-08-23T05:42:52.175Z,2.47
2022-08-23T05:45:21.829Z,2.25
2022-08-23T05:47:49.804Z,2.60
2022-08-23T05:50:38.242Z,2.75
2022-08-23T05:53:05.481Z,2.80
2022-08-23T05:55:34.999Z,2.80
2022-08-23T05:58:24.236Z,2.28
2022-08-23T06:00:51.111Z,2.63
2022-08-23T06:03:18.663Z,2.20
2022-08-23T06:05:47.268Z,2.30
2022-08-23T06:08:13.891Z,2.15
2022-08-23T06:10:42.505Z,2.85
2022-08-23T06:13:21.795Z,2.40
2022-08-23T06:15:48.708Z,2.22
2022-08-23T06:18:15.369Z,2.20
2022-08-23T06:20:43.373Z,1.55
2022-08-23T06:23:15.314Z,2.03
2022-08-23T06:25:42.518Z,1.67
2022-08-23T06:28:15.596Z,1.92
2022-08-23T06:30:43.544Z,2.08
2022-08-23T06:33:32.421Z,2.00
2022-08-23T06:36:34.407Z,1.40
2022-08-23T06:39:14.010Z,1.67
2022-08-23T06:42:36.495Z,1.98
2022-08-23T06:45:02.351Z,1.60
2022-08-23T06:47:42.581Z,2.05
2022-08-23T06:50:10.768Z,1.40
2022-08-23T06:52:56.295Z,1.58
2022-08-23T06:55:43.985Z,1.60
2022-08-23T06:58:29.403Z,1.48
2022-08-23T07:01:44.179Z,1.42
2022-08-23T07:04:12.481Z,1.48
2022-08-23T07:07:11.811Z,1.40
2022-08-23T07:09:40.247Z,1.73
2022-08-23T07:12:07.751Z,1.38
2022-08-23T07:14:40.838Z,1.30
2022-08-23T07:17:09.643Z,1.50
2022-08-23T07:19:36.653Z,1.50
2022-08-23T07:22:06.050Z,1.17
2022-08-23T07:24:34.027Z,1.48
2022-08-23T07:27:07.177Z,1.33
2022-08-23T07:29:40.036Z,1.35
2022-08-23T07:32:08.010Z,1.20
2022-08-23T07:34:35.847Z,1.30
2022-08-23T07:37:04.442Z,1.73
2022-08-23T07:39:39.035Z,1.25
2022-08-23T07:42:22.715Z,1.70
2022-08-23T07:44:53.780Z,1.30
2022-08-23T07:47:22.716Z,1.58
2022-08-23T07:49:49.480Z,1.58
2022-08-23T07:52:16.407Z,1.35
2022-08-23T07:54:43.551Z,1.20
2022-08-23T07:57:30.804Z,1.27
2022-08-23T08:00:16.535Z,1.60
2022-08-23T08:02:55.724Z,1.63
2022-08-23T08:05:28.788Z,1.83
2022-08-23T08:07:56.702Z,1.42
2022-08-23T08:10:23.590Z,1.50
2022-08-23T08:12:50.995Z,1.67
2022-08-23T08:15:19.780Z,1.27
2022-08-23T08:17:53.604Z,1.10
2022-08-23T08:20:21.793Z,1.50
2022-08-23T08:23:09.122Z,1.35
2022-08-23T08:26:11.579Z,1.55
2022-08-23T08:28:46.635Z,1.30
2022-08-23T08:31:14.325Z,1.13
2022-08-23T08:33:41.585Z,1.30
2022-08-23T08:36:09.748Z,1.30
2022-08-23T08:38:48.241Z,1.35
2022-08-23T08:41:26.533Z,1.63
2022-08-23T08:44:16.207Z,1.35
2022-08-23T08:46:57.174Z,1.27
2022-08-23T08:49:24.873Z,1.00
2022-08-23T08:52:01.315Z,0.98
2022-08-23T08:54:30.941Z,1.45
2022-08-23T08:57:01.469Z,1.13
2022-08-23T08:59:44.798Z,0.90
2022-08-23T09:02:22.085Z,1.15
2022-08-23T09:05:10.893Z,0.80
2022-08-23T09:07:50.910Z,1.00
2022-08-23T09:10:26.995Z,0.93
2022-08-23T09:13:36.551Z,0.90
2022-08-23T09:16:12.187Z,0.75
2022-08-23T09:18:39.358Z,1.00
2022-08-23T09:21:09.934Z,1.27
2022-08-23T09:23:45.123Z,0.70
2022-08-23T09:26:23.701Z,1.00
2022-08-23T09:28:55.757Z,0.70
2022-08-23T09:31:41.952Z,0.80
2022-08-23T09:34:15.527Z,0.80
2022-08-23T09:37:06.433Z,1.00
2022-08-23T09:39:36.512Z,0.77
2022-08-23T09:42:27.196Z,0.90
2022-08-23T09:44:55.258Z,1.00
2022-08-23T09:47:44.628Z,1.00
2022-08-23T09:50:33.974Z,0.95
2022-08-23T09:53:09.021Z,0.80
2022-08-23T09:55:55.058Z,0.80
2022-08-23T09:58:36.163Z,0.85
2022-08-23T10:01:15.043Z,0.90
2022-08-23T10:03:45.001Z,0.50
2022-08-23T10:06:32.198Z,1.02
2022-08-23T10:09:05.764Z,0.80
2022-08-23T10:11:46.052Z,1.00
2022-08-23T10:14:17.900Z,0.80
2022-08-23T10:17:08.314Z,1.27
2022-08-23T10:19:42.128Z,0.73
2022-08-23T10:22:21.160Z,0.70
2022-08-23T10:25:24.834Z,0.68
2022-08-23T10:28:35.753Z,0.68
2022-08-23T10:31:13.678Z,0.60
2022-08-23T10:33:49.633Z,0.50
2022-08-23T10:36:22.915Z,0.80
2022-08-23T10:39:03.724Z,0.80
2022-08-23T10:41:56.900Z,1.23
2022-08-23T10:44:35.540Z,0.95
2022-08-23T10:47:35.027Z,1.02
2022-08-23T10:50:12.527Z,0.80
2022-08-23T10:52:54.023Z,0.80
2022-08-23T10:55:44.151Z,0.90
2022-08-23T10:58:22.870Z,0.90
2022-08-23T11:00:51.315Z,1.00
2022-08-23T11:03:29.016Z,0.75
2022-08-23T11:06:23.194Z,0.70
2022-08-23T11:08:59.590Z,0.60
2022-08-23T11:11:39.798Z,0.68
2022-08-23T11:14:11.249Z,0.80
2022-08-23T11:16:42.274Z,0.70
2022-08-23T11:19:14.418Z,0.90
2022-08-23T11:21:46.892Z,0.90
2022-08-23T11:24:16.773Z,0.73
2022-08-23T11:26:45.180Z,0.60
2022-08-23T11:29:21.586Z,0.63
2022-08-23T11:32:07.000Z,0.73
2022-08-23T11:34:33.595Z,0.57
2022-08-23T11:37:18.928Z,0.75
2022-08-23T11:40:00.076Z,0.90
2022-08-23T11:42:38.690Z,0.60
2022-08-23T11:45:27.286Z,0.80
2022-08-23T11:48:16.700Z,0.70
2022-08-23T11:51:08.803Z,0.60
2022-08-23T11:53:42.097Z,0.60
2022-08-23T11:56:36.918Z,0.63
2022-08-23T11:59:22.487Z,0.60
2022-08-23T12:01:51.063Z,0.75
2022-08-23T12:04:38.644Z,0.60
2022-08-23T12:07:12.821Z,0.50
2022-08-23T12:09:51.928Z,0.50
2022-08-23T12:12:32.582Z,0.70
2022-08-23T12:15:09.092Z,0.57
2022-08-23T12:17:36.797Z,0.40
2022-08-23T12:20:16.509Z,0.60
2022-08-23T12:23:13.715Z,0.60
2022-08-23T12:25:41.981Z,0.60
2022-08-23T12:28:38.055Z,0.75
2022-08-23T12:31:16.202Z,0.52
2022-08-23T12:34:01.088Z,0.70
2022-08-23T12:36:57.148Z,0.65
2022-08-23T12:39:29.952Z,0.60
2022-08-23T12:42:03.975Z,0.50
2022-08-23T12:44:34.253Z,0.50
2022-08-23T12:47:14.367Z,0.52
2022-08-23T12:49:42.088Z,0.60
2022-08-23T12:52:12.192Z,0.80
2022-08-23T12:54:42.531Z,0.50
2022-08-23T12:57:16.221Z,0.50
2022-08-23T13:00:17.579Z,0.75
2022-08-23T13:03:01.704Z,1.42
2022-08-23T13:05:48.941Z,0.60
2022-08-23T13:08:34.338Z,0.73
2022-08-23T13:11:07.664Z,0.90
2022-08-23T13:13:37.447Z,1.05
2022-08-23T13:16:32.568Z,0.70
2022-08-23T13:19:24.795Z,0.52
2022-08-23T13:22:24.203Z,0.55
2022-08-23T13:25:29.250Z,0.60
2022-08-23T13:28:20.897Z,0.60
2022-08-23T13:31:08.767Z,0.68
2022-08-23T13:33:35.961Z,0.60
2022-08-23T13:36:13.700Z,1.15
2022-08-23T13:38:42.524Z,0.68
2022-08-23T13:41:39.296Z,0.75
2022-08-23T13:44:08.505Z,0.80
2022-08-23T13:46:45.175Z,0.50
2022-08-23T13:49:12.156Z,0.63
2022-08-23T13:51:46.109Z,0.88
2022-08-23T13:54:15.933Z,0.80
2022-08-23T13:56:51.434Z,0.47
2022-08-23T13:59:34.256Z,0.68
2022-08-23T14:02:05.566Z,0.60
2022-08-23T14:04:32.696Z,0.82
2022-08-23T14:06:59.827Z,0.80
2022-08-23T14:09:26.864Z,0.70
2022-08-23T14:11:59.080Z,0.40
2022-08-23T14:14:27.353Z,0.82
2022-08-23T14:16:54.772Z,0.65
2022-08-23T14:22:08.835Z,0.57
2022-08-23T14:24:35.909Z,0.45
2022-08-23T14:27:02.937Z,0.40
2022-08-23T14:29:30.068Z,0.63
2022-08-23T14:31:58.852Z,0.65
2022-08-23T14:34:27.353Z,0.60
2022-08-23T14:39:41.578Z,0.50
2022-08-23T14:42:09.392Z,0.63
2022-08-23T14:44:36.629Z,0.50
2022-08-23T14:47:05.614Z,0.73
2022-08-23T14:49:33.510Z,0.55
2022-08-23T14:52:00.317Z,0.60
2022-08-23T14:54:27.726Z,0.50
2022-08-23T14:56:54.715Z,0.70
2022-08-23T14:59:21.882Z,0.52
2022-08-23T15:01:52.602Z,0.60
2022-08-23T15:04:21.807Z,0.70
2022-08-23T15:07:16.179Z,0.53
2022-08-23T15:09:37.019Z,0.57
2022-08-23T15:14:51.029Z,0.60
2022-08-23T15:17:18.037Z,0.60
2022-08-23T15:19:45.159Z,0.52
2022-08-23T15:22:18.346Z,0.63
2022-08-23T15:24:48.159Z,0.70
2022-08-23T15:27:14.838Z,0.60
2022-08-23T15:29:41.851Z,0.43
2022-08-23T15:32:08.730Z,0.40
2022-08-23T15:34:37.280Z,0.60
2022-08-23T15:37:06.857Z,0.70
2022-08-23T15:39:33.520Z,0.50
2022-08-23T15:42:00.476Z,0.63
2022-08-23T15:44:27.592Z,0.55
2022-08-23T15:46:55.086Z,0.73
2022-08-23T15:49:23.388Z,0.60
2022-08-23T15:51:50.025Z,0.50
2022-08-23T15:54:16.861Z,1.23
2022-08-23T15:56:47.252Z,0.60
2022-08-23T15:59:16.132Z,0.70
2022-08-23T16:01:43.483Z,0.50
2022-08-23T16:04:10.689Z,0.52
2022-08-23T16:06:39.735Z,0.60
2022-08-23T16:09:12.617Z,0.55
2022-08-23T16:11:43.451Z,1.00
2022-08-23T16:14:10.776Z,0.50
2022-08-23T16:16:40.628Z,0.70
2022-08-23T16:19:08.896Z,0.63
2022-08-23T16:21:36.401Z,0.60
2022-08-23T16:24:03.932Z,0.70
2022-08-23T16:26:35.319Z,0.70
2022-08-23T16:29:05.477Z,0.73
2022-08-23T16:31:38.372Z,0.73
2022-08-23T16:34:11.907Z,0.70
2022-08-23T16:36:41.717Z,0.68
2022-08-23T16:39:11.683Z,0.95
2022-08-23T16:41:38.634Z,0.65
2022-08-23T16:44:06.130Z,0.70
2022-08-23T16:46:33.854Z,0.63
2022-08-23T16:49:01.102Z,0.90
2022-08-23T16:51:29.232Z,0.90
2022-08-23T16:54:02.483Z,0.80
2022-08-23T16:56:33.758Z,0.90
2022-08-23T17:01:28.742Z,0.80
2022-08-23T17:03:56.131Z,0.70
2022-08-23T17:06:22.983Z,0.73
2022-08-23T17:08:50.011Z,1.13
2022-08-23T17:11:19.627Z,0.95
2022-08-23T17:13:49.714Z,0.80
2022-08-23T17:16:16.737Z,0.70
2022-08-23T17:18:43.721Z,0.68
2022-08-23T17:21:11.940Z,0.90
2022-08-23T17:23:40.748Z,0.70
2022-08-23T17:26:09.850Z,1.00
2022-08-23T17:28:36.950Z,0.70
2022-08-23T17:31:03.657Z,1.08
2022-08-23T17:33:30.719Z,0.80
2022-08-23T17:35:57.776Z,0.77
2022-08-23T17:38:24.831Z,0.90
2022-08-23T17:40:51.473Z,0.70
2022-08-23T17:43:18.926Z,1.00
2022-08-23T17:45:48.934Z,0.70
2022-08-23T17:48:18.995Z,0.90
2022-08-23T17:50:46.816Z,0.90
2022-08-23T17:53:15.196Z,0.90
2022-08-23T17:55:43.056Z,0.90
2022-08-23T17:58:10.486Z,1.02
2022-08-23T18:00:39.527Z,0.90
2022-08-23T18:03:07.646Z,0.70
2022-08-23T18:05:37.186Z,1.23
2022-08-23T18:08:04.282Z,0.80
2022-08-23T18:10:31.232Z,0.95
2022-08-23T18:12:58.876Z,1.48
2022-08-23T18:15:27.235Z,1.20
2022-08-23T18:17:58.257Z,1.23
2022-08-23T18:20:26.679Z,1.00
2022-08-23T18:22:55.315Z,0.98
2022-08-23T18:25:22.967Z,0.90
2022-08-23T18:28:08.677Z,1.00
2022-08-23T18:30:51.211Z,1.13
2022-08-23T18:33:20.046Z,1.02
2022-08-23T18:35:52.622Z,1.10
2022-08-23T18:38:19.499Z,0.90
2022-08-23T18:40:48.454Z,0.90
2022-08-23T18:43:22.872Z,0.98
2022-08-23T18:45:52.087Z,1.10
2022-08-23T18:48:20.706Z,1.10
2022-08-23T18:50:49.988Z,1.30
2022-08-23T18:53:19.808Z,1.42
2022-08-23T18:55:47.011Z,1.10
2022-08-23T18:58:13.856Z,1.30
2022-08-23T19:00:43.403Z,1.05
2022-08-23T19:03:11.187Z,1.10
2022-08-23T19:05:42.145Z,1.00
2022-08-23T19:08:13.501Z,1.02
2022-08-23T19:10:42.036Z,1.10
2022-08-23T19:13:10.546Z,1.33
2022-08-23T19:15:38.256Z,1.35
2022-08-23T19:18:04.977Z,1.00
2022-08-23T19:20:32.360Z,1.50
2022-08-23T19:22:59.984Z,1.10
2022-08-23T19:25:28.016Z,1.00
2022-08-23T19:27:58.697Z,1.13
2022-08-23T19:30:28.764Z,1.17
2022-08-23T19:32:56.635Z,1.15
2022-08-23T19:35:23.561Z,1.77
2022-08-23T19:37:50.287Z,1.20
2022-08-23T19:40:17.047Z,1.33
2022-08-23T19:42:44.207Z,1.27
2022-08-23T19:45:11.511Z,1.20
2022-08-23T19:47:39.310Z,1.10
2022-08-23T19:50:09.634Z,1.60
2022-08-23T19:52:36.778Z,1.25
2022-08-23T19:55:07.221Z,1.42
2022-08-23T19:57:37.257Z,1.35
2022-08-23T20:00:18.530Z,1.40
2022-08-23T20:02:46.716Z,1.35
2022-08-23T20:05:13.401Z,1.60
2022-08-23T20:07:40.211Z,1.70
2022-08-23T20:10:08.776Z,1.50
2022-08-23T20:12:35.674Z,1.33
2022-08-23T20:15:02.894Z,1.58
2022-08-23T20:17:29.537Z,1.50
2022-08-23T20:19:56.633Z,1.10
2022-08-23T20:22:42.123Z,1.42
2022-08-23T20:25:09.159Z,1.50
2022-08-23T20:27:38.759Z,1.40
2022-08-23T20:30:08.405Z,1.40
2022-08-23T20:32:35.734Z,1.52
2022-08-23T20:35:05.456Z,1.60
2022-08-23T20:37:32.419Z,1.60
2022-08-23T20:39:59.887Z,1.40
2022-08-23T20:42:27.180Z,1.50
2022-08-23T20:44:53.936Z,1.52
2022-08-23T20:47:20.678Z,1.40
2022-08-23T20:49:47.684Z,1.70
2022-08-23T20:52:16.697Z,1.67
2022-08-23T20:54:43.459Z,1.27
2022-08-23T20:57:10.215Z,1.65
2022-08-23T20:59:39.824Z,1.90
2022-08-23T21:02:09.044Z,1.40
2022-08-23T21:04:36.096Z,1.55
2022-08-23T21:07:08.275Z,1.30
2022-08-23T21:09:35.928Z,1.20
2022-08-23T21:12:02.719Z,1.50
2022-08-23T21:14:29.320Z,1.70
2022-08-23T21:16:56.450Z,1.50
2022-08-23T21:19:23.235Z,1.42
2022-08-23T21:21:50.043Z,1.45
2022-08-23T21:24:16.716Z,1.60
2022-08-23T21:26:43.375Z,1.52
2022-08-23T21:29:10.531Z,1.67
2022-08-23T21:31:38.657Z,1.58
2022-08-23T21:34:05.754Z,1.90
2022-08-23T21:36:32.449Z,1.95
2022-08-23T21:38:59.105Z,1.60
2022-08-23T21:41:33.859Z,2.20
2022-08-23T21:44:01.978Z,1.80
2022-08-23T21:46:28.668Z,1.70
2022-08-23T21:48:55.984Z,2.03
2022-08-23T21:51:22.725Z,1.60
2022-08-23T21:53:49.844Z,1.60
2022-08-23T21:56:17.093Z,1.90
2022-08-23T21:58:44.587Z,1.60
2022-08-23T22:01:11.937Z,1.60
2022-08-23T22:03:38.641Z,1.60
2022-08-23T22:06:10.911Z,1.65
2022-08-23T22:08:37.920Z,1.77
2022-08-23T22:11:07.160Z,1.67
2022-08-23T22:13:35.545Z,1.92
2022-08-23T22:16:02.482Z,1.52
2022-08-23T22:18:30.304Z,1.83
2022-08-23T22:20:58.243Z,2.00
2022-08-23T22:23:29.150Z,2.00
2022-08-23T22:26:00.576Z,1.90
2022-08-23T22:31:04.062Z,1.88
2022-08-23T22:33:31.190Z,1.60
2022-08-23T22:36:07.064Z,1.40
2022-08-23T22:38:34.076Z,1.60
2022-08-23T22:41:00.736Z,1.63
2022-08-23T22:43:28.333Z,1.75
2022-08-23T22:46:00.523Z,1.67
2022-08-23T22:51:06.265Z,1.70
2022-08-23T22:53:34.068Z,1.63
2022-08-23T22:56:00.824Z,1.83
2022-08-23T22:58:27.831Z,2.03
2022-08-23T23:00:54.897Z,1.58
2022-08-23T23:03:23.127Z,2.10
2022-08-23T23:05:49.824Z,1.90
2022-08-23T23:08:28.963Z,1.65
2022-08-23T23:11:02.625Z,1.75
2022-08-23T23:13:31.441Z,1.90
2022-08-23T23:16:02.189Z,2.00
2022-08-23T23:18:29.381Z,1.90
2022-08-23T23:21:01.852Z,2.03
2022-08-23T23:23:30.785Z,2.20
2022-08-23T23:25:58.838Z,1.98
2022-08-23T23:28:26.188Z,2.08
2022-08-23T23:30:54.641Z,2.60
2022-08-23T23:33:22.314Z,1.92
2022-08-23T23:35:49.845Z,2.30
2022-08-23T23:38:16.750Z,2.20
2022-08-23T23:40:44.075Z,2.15
2022-08-23T23:43:12.877Z,2.25
2022-08-23T23:45:40.100Z,2.45
2022-08-23T23:48:08.457Z,1.80
2022-08-23T23:50:36.851Z,1.70
2022-08-23T23:53:04.398Z,2.22
2022-08-23T23:55:31.117Z,1.67
2022-08-23T23:57:58.614Z,2.47
